createdAt,value
2019-04-20T00:01:22.842Z,4.83
2019-04-20T00:03:48.472Z,5.23
2019-04-20T00:06:17.395Z,5.37
2019-04-20T00:08:47.584Z,4.73
2019-04-20T00:11:25.470Z,5.00
2019-04-20T00:13:55.201Z,5.37
2019-04-20T00:16:16.974Z,5.00
2019-04-20T00:18:50.357Z,5.10
2019-04-20T00:21:35.312Z,6.17
2019-04-20T00:24:11.503Z,5.00
2019-04-20T00:27:04.783Z,5.10
2019-04-20T00:29:24.867Z,5.37
2019-04-20T00:31:48.901Z,5.53
2019-04-20T00:34:17.277Z,5.60
2019-04-20T00:36:37.112Z,5.23
2019-04-20T00:39:11.271Z,5.70
2019-04-20T00:41:44.761Z,5.30
2019-04-20T00:44:13.288Z,5.47
2019-04-20T00:46:53.506Z,5.73
2019-04-20T00:49:28.742Z,6.23
2019-04-20T00:52:11.165Z,5.33
2019-04-20T00:54:09.564Z,5.03
2019-04-20T00:56:39.291Z,5.57
2019-04-20T00:59:20.228Z,5.63
2019-04-20T01:02:00.274Z,6.10
2019-04-20T01:04:26.253Z,6.03
2019-04-20T01:07:09.492Z,5.70
2019-04-20T01:09:28.839Z,5.80
2019-04-20T01:11:58.475Z,6.20
2019-04-20T01:14:36.093Z,6.53
2019-04-20T01:17:06.994Z,6.20
2019-04-20T01:19:27.485Z,6.77
2019-04-20T01:22:03.723Z,6.23
2019-04-20T01:24:32.837Z,6.37
2019-04-20T01:27:00.764Z,5.90
2019-04-20T01:29:38.354Z,5.97
2019-04-20T01:32:10.530Z,6.07
2019-04-20T01:34:41.779Z,6.40
2019-04-20T01:37:13.125Z,6.33
2019-04-20T01:39:35.336Z,6.70
2019-04-20T01:41:58.202Z,6.60
2019-04-20T01:44:35.381Z,6.70
2019-04-20T01:47:01.516Z,6.13
2019-04-20T01:49:31.857Z,6.13
2019-04-20T01:52:09.987Z,6.07
2019-04-20T01:54:48.455Z,6.47
2019-04-20T01:57:24.785Z,6.20
2019-04-20T02:00:06.095Z,6.30
2019-04-20T02:02:35.512Z,6.03
2019-04-20T02:05:09.506Z,5.77
2019-04-20T02:07:40.032Z,6.70
2019-04-20T02:10:05.042Z,6.33
2019-04-20T02:12:35.691Z,5.77
2019-04-20T02:15:04.683Z,6.33
2019-04-20T02:17:40.770Z,5.73
2019-04-20T02:20:23.262Z,7.07
2019-04-20T02:22:48.721Z,5.93
2019-04-20T02:25:03.906Z,5.60
2019-04-20T02:27:38.560Z,6.00
2019-04-20T02:30:29.980Z,5.80
2019-04-20T02:33:21.688Z,6.27
2019-04-20T02:36:01.193Z,6.23
2019-04-20T02:38:39.170Z,5.53
2019-04-20T02:40:56.845Z,5.80
2019-04-20T02:43:39.056Z,6.00
2019-04-20T02:46:18.478Z,6.23
2019-04-20T02:48:29.918Z,6.33
2019-04-20T02:50:58.982Z,6.80
2019-04-20T02:56:03.875Z,6.00
2019-04-20T02:58:39.071Z,6.27
2019-04-20T03:00:52.731Z,6.10
2019-04-20T03:03:14.317Z,6.77
2019-04-20T03:05:42.433Z,5.50
2019-04-20T03:08:17.327Z,6.03
2019-04-20T03:11:06.420Z,5.57
2019-04-20T03:13:26.637Z,5.90
2019-04-20T03:15:56.484Z,5.27
2019-04-20T03:18:29.958Z,5.60
2019-04-20T03:20:56.416Z,6.00
2019-04-20T03:23:33.486Z,5.53
2019-04-20T03:25:58.420Z,5.97
2019-04-20T03:28:27.487Z,6.00
2019-04-20T03:33:53.744Z,6.07
2019-04-20T03:36:12.131Z,5.40
2019-04-20T03:38:27.258Z,6.00
2019-04-20T03:40:50.653Z,5.00
2019-04-20T03:43:10.051Z,5.40
2019-04-20T03:45:47.549Z,6.67
2019-04-20T03:48:32.575Z,6.20
2019-04-20T03:50:57.815Z,5.83
2019-04-20T03:53:34.558Z,6.10
2019-04-20T03:56:02.188Z,6.97
2019-04-20T03:58:39.048Z,6.00
2019-04-20T04:01:20.262Z,6.07
2019-04-20T04:04:05.373Z,5.83
2019-04-20T04:06:22.797Z,6.27
2019-04-20T04:08:55.881Z,6.03
2019-04-20T04:11:27.377Z,6.37
2019-04-20T04:13:41.935Z,6.17
2019-04-20T04:16:13.730Z,6.13
2019-04-20T04:18:44.711Z,6.00
2019-04-20T04:21:18.275Z,6.10
2019-04-20T04:23:58.974Z,6.00
2019-04-20T04:26:31.191Z,6.20
2019-04-20T04:29:00.703Z,6.40
2019-04-20T04:31:35.007Z,6.73
2019-04-20T04:34:14.732Z,6.00
2019-04-20T04:36:26.123Z,5.90
2019-04-20T04:39:05.509Z,5.97
2019-04-20T04:41:36.422Z,5.80
2019-04-20T04:44:00.665Z,6.80
2019-04-20T04:46:12.824Z,6.70
2019-04-20T04:48:45.949Z,6.33
2019-04-20T04:51:19.648Z,6.70
2019-04-20T04:53:51.041Z,6.13
2019-04-20T04:56:17.058Z,6.50
2019-04-20T04:58:42.640Z,6.30
2019-04-20T05:01:18.471Z,6.20
2019-04-20T05:04:05.243Z,6.70
2019-04-20T05:06:29.192Z,6.43
2019-04-20T05:08:49.876Z,6.50
2019-04-20T05:11:13.496Z,6.67
2019-04-20T05:13:50.811Z,6.70
2019-04-20T05:16:27.834Z,6.43
2019-04-20T05:19:01.975Z,6.20
2019-04-20T05:21:31.489Z,6.43
2019-04-20T05:24:07.609Z,6.23
2019-04-20T05:26:53.408Z,6.60
2019-04-20T05:29:07.917Z,6.47
2019-04-20T05:31:34.885Z,6.87
2019-04-20T05:34:20.360Z,6.77
2019-04-20T05:36:53.035Z,6.60
2019-04-20T05:39:26.587Z,6.47
2019-04-20T05:41:48.180Z,6.87
2019-04-20T05:44:16.890Z,6.37
2019-04-20T05:46:59.924Z,6.53
2019-04-20T05:49:27.082Z,6.87
2019-04-20T05:52:25.444Z,6.40
2019-04-20T05:54:26.952Z,6.63
2019-04-20T05:56:58.882Z,6.20
2019-04-20T05:59:19.185Z,6.77
2019-04-20T06:01:57.624Z,6.80
2019-04-20T06:04:39.384Z,7.07
2019-04-20T06:06:54.905Z,7.00
2019-04-20T06:09:28.687Z,6.83
2019-04-20T06:12:07.481Z,7.10
2019-04-20T06:14:18.435Z,7.27
2019-04-20T06:17:02.923Z,6.67
2019-04-20T06:19:35.694Z,6.73
2019-04-20T06:22:17.197Z,7.07
2019-04-20T06:25:04.580Z,7.10
2019-04-20T06:27:14.880Z,7.40
2019-04-20T06:29:46.021Z,7.27
2019-04-20T06:32:23.381Z,6.97
2019-04-20T06:34:46.520Z,7.63
2019-04-20T06:37:10.070Z,7.97
2019-04-20T06:42:15.229Z,7.23
2019-04-20T06:44:41.314Z,6.63
2019-04-20T06:47:35.566Z,6.77
2019-04-20T06:49:38.115Z,6.77
2019-04-20T06:52:25.976Z,7.47
2019-04-20T06:55:02.822Z,6.50
2019-04-20T06:57:50.008Z,7.00
2019-04-20T07:00:12.760Z,6.67
2019-04-20T07:02:42.861Z,6.93
2019-04-20T07:07:35.780Z,6.90
2019-04-20T07:10:13.296Z,7.07
2019-04-20T07:12:39.606Z,7.00
2019-04-20T07:15:00.113Z,7.83
2019-04-20T07:20:15.992Z,7.47
2019-04-20T07:22:55.924Z,7.40
2019-04-20T07:25:18.950Z,7.50
2019-04-20T07:27:53.595Z,7.30
2019-04-20T07:30:16.521Z,6.87
2019-04-20T07:33:06.961Z,7.73
2019-04-20T07:35:19.851Z,7.60
2019-04-20T07:40:23.200Z,7.40
2019-04-20T07:45:26.064Z,7.87
2019-04-20T07:47:59.508Z,7.77
2019-04-20T07:50:20.097Z,7.43
2019-04-20T07:52:43.982Z,7.33
2019-04-20T07:57:47.273Z,7.40
2019-04-20T08:00:35.568Z,7.50
2019-04-20T08:03:20.507Z,8.20
2019-04-20T08:05:40.557Z,7.20
2019-04-20T08:08:18.311Z,7.27
2019-04-20T08:10:51.071Z,7.87
2019-04-20T08:13:25.754Z,14.67
2019-04-20T08:18:27.695Z,7.77
2019-04-20T08:20:52.727Z,6.73
2019-04-20T08:23:25.951Z,7.17
2019-04-20T08:25:43.087Z,8.07
2019-04-20T08:28:31.504Z,7.80
2019-04-20T08:31:18.180Z,7.17
2019-04-20T08:34:07.613Z,6.87
2019-04-20T08:36:29.959Z,7.67
2019-04-20T08:39:29.969Z,6.73
2019-04-20T08:41:21.913Z,6.90
2019-04-20T08:43:59.072Z,6.93
2019-04-20T08:46:26.549Z,7.33
2019-04-20T08:48:59.757Z,6.67
2019-04-20T08:51:33.247Z,7.27
2019-04-20T08:53:57.012Z,7.10
2019-04-20T08:56:22.313Z,10.03
2019-04-20T08:58:39.162Z,7.27
2019-04-20T09:01:10.593Z,6.07
2019-04-20T09:03:51.279Z,6.53
2019-04-20T09:06:24.360Z,6.40
2019-04-20T09:08:50.895Z,6.50
2019-04-20T09:11:25.019Z,6.40
2019-04-20T09:13:46.251Z,6.20
2019-04-20T09:16:09.314Z,5.97
2019-04-20T09:18:50.152Z,6.50
2019-04-20T09:21:24.225Z,6.47
2019-04-20T09:24:13.452Z,6.87
2019-04-20T09:26:32.746Z,9.57
2019-04-20T09:28:59.154Z,6.80
2019-04-20T09:31:38.069Z,6.47
2019-04-20T09:34:14.422Z,5.60
2019-04-20T09:37:04.573Z,5.93
2019-04-20T09:39:27.127Z,5.67
2019-04-20T09:42:05.382Z,5.43
2019-04-20T09:44:39.848Z,5.60
2019-04-20T09:47:05.575Z,6.13
2019-04-20T09:49:46.012Z,5.60
2019-04-20T09:52:16.872Z,5.73
2019-04-20T09:54:52.591Z,5.77
2019-04-20T09:57:26.770Z,5.40
2019-04-20T09:59:53.653Z,5.30
2019-04-20T10:02:15.515Z,6.00
2019-04-20T10:04:37.330Z,5.57
2019-04-20T10:07:13.779Z,5.67
2019-04-20T10:09:39.876Z,5.63
2019-04-20T10:12:07.899Z,5.40
2019-04-20T10:14:36.399Z,5.80
2019-04-20T10:17:05.778Z,4.97
2019-04-20T10:19:37.647Z,6.27
2019-04-20T10:22:04.784Z,5.67
2019-04-20T10:24:34.629Z,5.40
2019-04-20T10:27:03.456Z,6.20
2019-04-20T10:29:31.857Z,5.90
2019-04-20T10:32:05.536Z,5.90
2019-04-20T10:34:30.617Z,5.77
2019-04-20T10:37:01.683Z,5.80
2019-04-20T10:39:32.047Z,5.37
2019-04-20T10:42:04.073Z,6.53
2019-04-20T10:44:30.635Z,5.10
2019-04-20T10:46:59.136Z,5.80
2019-04-20T10:49:29.016Z,5.70
2019-04-20T10:51:57.842Z,5.33
2019-04-20T10:54:26.748Z,5.27
2019-04-20T10:56:57.350Z,6.07
2019-04-20T10:59:25.954Z,4.83
2019-04-20T11:01:55.840Z,5.37
2019-04-20T11:04:24.501Z,5.87
2019-04-20T11:06:54.394Z,5.70
2019-04-20T11:09:23.243Z,6.20
2019-04-20T11:11:52.429Z,5.58
2019-04-20T11:14:29.318Z,4.70
2019-04-20T11:16:51.247Z,5.33
2019-04-20T11:19:21.121Z,5.65
2019-04-20T11:21:50.246Z,5.45
2019-04-20T11:24:18.863Z,5.72
2019-04-20T11:26:47.300Z,5.28
2019-04-20T11:29:16.439Z,5.50
2019-04-20T11:31:49.264Z,5.03
2019-04-20T11:34:23.477Z,5.15
2019-04-20T11:36:46.082Z,4.90
2019-04-20T11:39:14.884Z,4.78
2019-04-20T11:41:43.697Z,7.05
2019-04-20T11:44:13.661Z,4.25
2019-04-20T11:46:42.956Z,4.90
2019-04-20T11:49:11.506Z,4.80
2019-04-20T11:51:45.571Z,4.80
2019-04-20T11:54:14.603Z,4.43
2019-04-20T11:56:45.770Z,5.23
2019-04-20T11:59:13.316Z,4.20
2019-04-20T12:02:00.521Z,4.30
2019-04-20T12:04:41.416Z,4.40
2019-04-20T12:07:01.271Z,4.20
2019-04-20T12:09:33.447Z,4.17
2019-04-20T12:12:13.140Z,4.43
2019-04-20T12:14:32.682Z,4.30
2019-04-20T12:17:01.740Z,4.53
2019-04-20T12:19:31.200Z,4.90
2019-04-20T12:22:00.008Z,4.87
2019-04-20T12:24:29.150Z,4.80
2019-04-20T12:26:58.697Z,5.23
2019-04-20T12:29:27.962Z,4.40
2019-04-20T12:31:59.154Z,4.20
2019-04-20T12:34:26.749Z,5.07
2019-04-20T12:36:55.403Z,4.23
2019-04-20T12:39:24.870Z,5.33
2019-04-20T12:41:58.295Z,5.47
2019-04-20T12:44:23.769Z,4.63
2019-04-20T12:46:52.471Z,5.27
2019-04-20T12:49:20.947Z,4.70
2019-04-20T12:51:54.751Z,4.87
2019-04-20T12:54:20.731Z,5.57
2019-04-20T12:56:50.642Z,5.07
2019-04-20T12:59:19.239Z,6.77
2019-04-20T13:01:47.658Z,4.97
2019-04-20T13:04:16.502Z,4.30
2019-04-20T13:06:46.903Z,4.73
2019-04-20T13:09:16.759Z,4.37
2019-04-20T13:12:01.095Z,4.73
2019-04-20T13:14:44.301Z,4.90
2019-04-20T13:17:12.908Z,4.20
2019-04-20T13:19:41.600Z,5.23
2019-04-20T13:22:10.878Z,4.80
2019-04-20T13:24:39.435Z,4.80
2019-04-20T13:27:09.044Z,4.97
2019-04-20T13:29:38.353Z,4.77
2019-04-20T13:32:07.690Z,5.10
2019-04-20T13:34:36.222Z,4.43
2019-04-20T13:37:04.788Z,4.47
2019-04-20T13:39:33.190Z,5.07
2019-04-20T13:42:10.217Z,4.63
2019-04-20T13:44:32.674Z,4.87
2019-04-20T13:47:03.122Z,4.80
2019-04-20T13:49:31.612Z,4.90
2019-04-20T13:52:00.095Z,4.60
2019-04-20T13:54:29.588Z,4.63
2019-04-20T13:57:00.016Z,4.33
2019-04-20T13:59:30.123Z,5.17
2019-04-20T14:02:00.296Z,5.20
2019-04-20T14:04:30.736Z,4.20
2019-04-20T14:06:59.658Z,4.97
2019-04-20T14:09:29.602Z,4.83
2019-04-20T14:12:10.289Z,4.90
2019-04-20T14:14:28.963Z,4.67
2019-04-20T14:16:57.510Z,5.10
2019-04-20T14:19:27.199Z,4.70
2019-04-20T14:21:56.478Z,4.73
2019-04-20T14:24:25.050Z,5.10
2019-04-20T14:26:54.747Z,4.47
2019-04-20T14:29:23.261Z,4.80
2019-04-20T14:31:52.136Z,4.27
2019-04-20T14:34:20.746Z,4.17
2019-04-20T14:36:49.192Z,4.60
2019-04-20T14:39:18.322Z,4.93
2019-04-20T14:41:46.818Z,5.50
2019-04-20T14:44:16.163Z,4.70
2019-04-20T14:46:45.516Z,5.40
2019-04-20T14:49:14.749Z,5.43
2019-04-20T14:51:43.670Z,5.10
2019-04-20T14:54:12.156Z,7.90
2019-04-20T14:56:41.313Z,5.37
2019-04-20T14:59:11.560Z,5.30
2019-04-20T15:01:44.969Z,5.47
2019-04-20T15:04:17.988Z,5.30
2019-04-20T15:06:44.639Z,4.73
2019-04-20T15:09:13.236Z,5.53
2019-04-20T15:11:43.433Z,5.70
2019-04-20T15:14:11.821Z,5.63
2019-04-20T15:16:40.509Z,5.50
2019-04-20T15:19:11.810Z,5.70
2019-04-20T15:21:42.205Z,5.93
2019-04-20T15:24:11.342Z,5.73
2019-04-20T15:26:40.438Z,5.30
2019-04-20T15:29:10.385Z,4.93
2019-04-20T15:31:39.028Z,5.73
2019-04-20T15:34:08.660Z,4.60
2019-04-20T15:36:38.095Z,4.97
2019-04-20T15:39:07.783Z,4.90
2019-04-20T15:41:36.227Z,5.30
2019-04-20T15:44:05.225Z,5.13
2019-04-20T15:46:35.291Z,5.07
2019-04-20T15:49:04.192Z,4.73
2019-04-20T15:51:34.160Z,4.63
2019-04-20T15:54:02.771Z,5.10
2019-04-20T15:56:31.275Z,5.13
2019-04-20T15:58:59.795Z,5.60
2019-04-20T16:01:30.263Z,5.57
2019-04-20T16:04:01.476Z,4.90
2019-04-20T16:06:31.548Z,4.83
2019-04-20T16:09:02.091Z,5.67
2019-04-20T16:11:31.031Z,5.90
2019-04-20T16:14:00.197Z,5.70
2019-04-20T16:16:30.028Z,5.23
2019-04-20T16:18:59.114Z,5.47
2019-04-20T16:21:31.252Z,5.37
2019-04-20T16:24:00.994Z,5.47
2019-04-20T16:26:37.851Z,5.00
2019-04-20T16:29:08.104Z,5.40
2019-04-20T16:31:36.579Z,4.90
2019-04-20T16:34:05.323Z,4.90
2019-04-20T16:36:34.616Z,4.97
2019-04-20T16:39:03.659Z,5.67
2019-04-20T16:41:32.631Z,5.13
2019-04-20T16:44:01.227Z,5.13
2019-04-20T16:46:30.217Z,5.40
2019-04-20T16:48:59.064Z,5.10
2019-04-20T16:51:27.571Z,4.67
2019-04-20T16:53:56.297Z,5.00
2019-04-20T16:56:24.790Z,4.80
2019-04-20T16:58:59.302Z,4.93
2019-04-20T17:01:23.591Z,4.63
2019-04-20T17:04:02.088Z,5.07
2019-04-20T17:06:22.537Z,5.10
2019-04-20T17:08:51.408Z,4.23
2019-04-20T17:11:21.535Z,5.13
2019-04-20T17:13:54.768Z,5.60
2019-04-20T17:16:21.749Z,4.10
2019-04-20T17:18:51.846Z,5.23
2019-04-20T17:21:25.262Z,7.20
2019-04-20T17:23:51.318Z,4.23
2019-04-20T17:26:23.022Z,4.17
2019-04-20T17:28:55.479Z,3.77
2019-04-20T17:31:25.331Z,4.10
2019-04-20T17:34:04.990Z,3.93
2019-04-20T17:36:31.159Z,4.20
2019-04-20T17:38:59.752Z,4.83
2019-04-20T17:41:44.659Z,4.20
2019-04-20T17:44:17.294Z,4.20
2019-04-20T17:46:39.165Z,4.57
2019-04-20T17:49:14.229Z,4.37
2019-04-20T17:51:54.911Z,4.43
2019-04-20T17:54:06.680Z,4.80
2019-04-20T17:56:34.240Z,4.80
2019-04-20T17:59:04.064Z,4.50
2019-04-20T18:01:49.864Z,4.97
2019-04-20T18:04:44.475Z,4.67
2019-04-20T18:06:53.710Z,4.40
2019-04-20T18:09:34.878Z,5.27
2019-04-20T18:11:46.397Z,6.37
2019-04-20T18:14:28.624Z,5.30
2019-04-20T18:17:05.215Z,6.17
2019-04-20T18:19:22.288Z,5.80
2019-04-20T18:21:49.745Z,5.50
2019-04-20T18:24:42.621Z,7.83
2019-04-20T18:27:06.875Z,6.97
2019-04-20T18:29:37.057Z,6.13
2019-04-20T18:31:51.428Z,5.87
2019-04-20T18:34:25.254Z,8.50
2019-04-20T18:36:52.815Z,4.67
2019-04-20T18:39:31.833Z,5.60
2019-04-20T18:42:01.168Z,5.83
2019-04-20T18:44:30.590Z,5.57
2019-04-20T18:47:23.690Z,6.20
2019-04-20T18:49:35.969Z,6.40
2019-04-20T18:51:53.997Z,6.70
2019-04-20T18:54:27.751Z,6.90
2019-04-20T18:56:53.444Z,6.37
2019-04-20T18:59:30.195Z,5.80
2019-04-20T19:01:53.116Z,6.33
2019-04-20T19:04:21.841Z,6.03
2019-04-20T19:06:50.345Z,7.27
2019-04-20T19:09:24.969Z,6.17
2019-04-20T19:11:55.932Z,6.87
2019-04-20T19:14:35.566Z,7.73
2019-04-20T19:17:13.925Z,7.83
2019-04-20T19:19:45.053Z,8.30
2019-04-20T19:22:10.166Z,8.27
2019-04-20T19:24:41.501Z,8.47
2019-04-20T19:27:14.942Z,7.97
2019-04-20T19:29:47.279Z,8.10
2019-04-20T19:32:23.887Z,9.57
2019-04-20T19:34:54.127Z,9.10
2019-04-20T19:37:17.162Z,8.37
2019-04-20T19:39:54.672Z,7.70
2019-04-20T19:42:23.792Z,8.17
2019-04-20T19:44:53.789Z,8.70
2019-04-20T19:47:32.444Z,8.27
2019-04-20T19:49:51.778Z,7.63
2019-04-20T19:52:36.505Z,7.53
2019-04-20T19:55:02.675Z,8.93
2019-04-20T19:57:33.466Z,8.60
2019-04-20T19:59:49.494Z,8.27
2019-04-20T20:02:12.016Z,8.63
2019-04-20T20:04:48.667Z,7.50
2019-04-20T20:07:21.094Z,8.20
2019-04-20T20:09:49.773Z,8.17
2019-04-20T20:12:15.632Z,9.57
2019-04-20T20:14:44.828Z,8.80
2019-04-20T20:17:33.202Z,9.27
2019-04-20T20:20:13.016Z,9.50
2019-04-20T20:22:22.924Z,8.67
2019-04-20T20:24:43.139Z,8.67
2019-04-20T20:27:20.691Z,9.07
2019-04-20T20:29:57.233Z,8.30
2019-04-20T20:32:22.094Z,9.73
2019-04-20T20:34:45.403Z,9.27
2019-04-20T20:37:23.317Z,9.00
2019-04-20T20:39:53.808Z,9.77
2019-04-20T20:42:28.222Z,9.47
2019-04-20T20:44:54.073Z,9.80
2019-04-20T20:47:36.753Z,10.03
2019-04-20T20:50:11.379Z,9.47
2019-04-20T20:52:32.081Z,9.13
2019-04-20T20:54:56.360Z,8.50
2019-04-20T20:57:18.868Z,8.27
2019-04-20T20:59:54.795Z,9.37
2019-04-20T21:02:22.413Z,9.07
2019-04-20T21:04:45.797Z,8.93
2019-04-20T21:07:14.609Z,10.93
2019-04-20T21:09:43.121Z,9.37
2019-04-20T21:12:15.944Z,9.63
2019-04-20T21:14:43.545Z,9.93
2019-04-20T21:17:17.849Z,9.17
2019-04-20T21:19:58.379Z,8.93
2019-04-20T21:22:22.220Z,7.90
2019-04-20T21:24:47.083Z,9.43
2019-04-20T21:27:17.956Z,8.00
2019-04-20T21:29:51.367Z,8.90
2019-04-20T21:32:18.074Z,6.70
2019-04-20T21:34:53.327Z,7.77
2019-04-20T21:37:19.249Z,8.20
2019-04-20T21:39:53.378Z,7.60
2019-04-20T21:42:19.255Z,7.47
2019-04-20T21:44:50.078Z,6.50
2019-04-20T21:47:23.766Z,7.33
2019-04-20T21:49:57.765Z,6.37
2019-04-20T21:52:25.911Z,6.83
2019-04-20T21:54:47.889Z,7.17
2019-04-20T21:57:17.999Z,6.60
2019-04-20T21:59:50.431Z,6.87
2019-04-20T22:02:24.093Z,6.83
2019-04-20T22:04:47.323Z,7.27
2019-04-20T22:07:16.481Z,7.57
2019-04-20T22:09:48.965Z,7.27
2019-04-20T22:12:16.004Z,6.83
2019-04-20T22:14:48.701Z,7.37
2019-04-20T22:17:22.450Z,7.33
2019-04-20T22:19:59.036Z,6.63
2019-04-20T22:22:29.333Z,7.50
2019-04-20T22:25:03.928Z,7.57
2019-04-20T22:27:21.095Z,7.93
2019-04-20T22:29:46.185Z,7.90
2019-04-20T22:32:17.341Z,8.07
2019-04-20T22:34:47.549Z,7.93
2019-04-20T22:37:21.262Z,8.50
2019-04-20T22:39:52.530Z,7.93
2019-04-20T22:42:18.674Z,7.77
2019-04-20T22:44:54.699Z,8.50
2019-04-20T22:47:23.079Z,7.77
2019-04-20T22:50:11.869Z,8.50
2019-04-20T22:52:34.864Z,8.50
2019-04-20T22:55:09.984Z,8.30
2019-04-20T22:57:31.909Z,8.53
2019-04-20T22:59:58.405Z,8.57
2019-04-20T23:02:22.620Z,8.27
2019-04-20T23:04:48.836Z,8.50
2019-04-20T23:07:17.245Z,7.77
2019-04-20T23:09:52.221Z,8.13
2019-04-20T23:12:21.172Z,8.50
2019-04-20T23:14:46.578Z,7.90
2019-04-20T23:17:18.124Z,7.80
2019-04-20T23:19:49.432Z,8.77
2019-04-20T23:22:16.093Z,7.93
2019-04-20T23:24:46.828Z,8.83
2019-04-20T23:27:23.378Z,9.23
2019-04-20T23:29:46.951Z,8.50
2019-04-20T23:32:16.378Z,9.27
2019-04-20T23:34:49.107Z,8.73
2019-04-20T23:37:22.605Z,8.47
2019-04-20T23:39:49.129Z,8.87
2019-04-20T23:42:21.829Z,8.77
2019-04-20T23:45:02.206Z,8.77
2019-04-20T23:47:33.907Z,8.23
2019-04-20T23:50:24.320Z,8.63
2019-04-20T23:52:53.363Z,8.83
2019-04-20T23:55:09.737Z,9.27
2019-04-20T23:57:37.835Z,8.63
